Bellville, Ohio
Current Conditions -  °F | °C
As of 4:52 PM on Thursday 23 Oct 2014 (Local Time) from KMFD Reporting Station
Clear Clear  
Wind Chill: 57°   Ceiling: Unl
Heat Index: 57°   Visibility: 10mi
Dew Point: 41°   Wind: 5mph
Humidity: 55%   Direction: 310°NW
Pressure: 30.13"   Gusts: NA
Location:  40.62°N, 82.51°W
Report Text: KMFD 232052Z 31004KT 10SM CLR 14/05 A3013 RMK AO2 SLP208 T01390050 56019
Loading
Personal Weather Stations






























Interactive Weather Map
Tropical Storm Tracking
New forecast layout! Learn more

10-Day Weather Forecast

Advertisements
Track Severe Weather on mobile